Time;durP1;ratioP1;P1;durP2;ratioP2;P2;SDS_P1;SDS_P2;PMS_P1;PMS_P2;Temp;Humidity;BMP_temperature;BMP_pressure;BME280_temperature;BME280_humidity;BME280_pressure;Samples;Min_cycle;Max_cycle;Signal;HPM_P1;HPM_P2
2021/03/27 00:02:20;;;;;;;3.90;3.50;;;;;;;;;;5115274;28;20221;-51
2021/03/27 00:04:48;;;;;;;4.30;3.38;;;;;;;;;;5115395;28;20181;-51
2021/03/27 00:07:18;;;;;;;3.05;2.75;;;;;;;;;;5115518;28;20256;-51
2021/03/27 00:09:47;;;;;;;3.58;3.28;;;;;;;;;;5114550;28;20185;-51
2021/03/27 00:12:42;;;;;;;3.92;3.50;;;;;;;;;;5115060;28;20185;-51
2021/03/27 00:15:14;;;;;;;3.42;3.13;;;;;;;;;;5097594;28;20196;-51
2021/03/27 00:17:45;;;;;;;3.25;2.95;;;;;;;;;;5115077;28;20207;-51
2021/03/27 00:20:16;;;;;;;4.18;3.05;;;;;;;;;;5115223;28;20288;-51
2021/03/27 00:22:55;;;;;;;4.10;3.60;;;;;;;;;;5114796;28;20287;-51
2021/03/27 00:25:24;;;;;;;3.88;3.10;;;;;;;;;;5114280;28;20185;-51
2021/03/27 00:27:56;;;;;;;3.22;2.92;;;;;;;;;;5115293;28;20204;-51
2021/03/27 00:30:26;;;;;;;3.55;3.17;;;;;;;;;;5114948;28;20204;-51
2021/03/27 00:32:54;;;;;;;4.00;3.33;;;;;;;;;;5114838;28;20165;-51
2021/03/27 00:35:32;;;;;;;3.20;2.72;;;;;;;;;;5114020;28;20633;-51
2021/03/27 00:37:59;;;;;;;3.33;3.03;;;;;;;;;;5114892;28;20177;-51
2021/03/27 00:40:26;;;;;;;3.83;3.50;;;;;;;;;;5114048;28;20193;-51
2021/03/27 00:42:58;;;;;;;3.85;3.15;;;;;;;;;;5114477;28;20439;-51
2021/03/27 00:45:26;;;;;;;3.40;2.97;;;;;;;;;;5114229;28;20180;-51
2021/03/27 00:47:54;;;;;;;3.42;2.90;;;;;;;;;;5114729;28;20204;-51
2021/03/27 00:50:23;;;;;;;3.40;2.90;;;;;;;;;;5114721;28;20250;-51
2021/03/27 00:52:51;;;;;;;3.25;2.95;;;;;;;;;;5114856;28;20188;-51
2021/03/27 00:55:22;;;;;;;3.30;3.00;;;;;;;;;;5113992;28;20181;-51
2021/03/27 00:57:56;;;;;;;3.28;2.97;;;;;;;;;;5114553;28;20181;-51
2021/03/27 01:00:36;;;;;;;2.88;2.67;;;;;;;;;;5114062;28;20180;-51
2021/03/27 01:03:04;;;;;;;3.13;2.83;;;;;;;;;;5114474;28;20254;-51
2021/03/27 01:05:31;;;;;;;3.13;2.83;;;;;;;;;;5113712;28;20185;-51
2021/03/27 01:07:58;;;;;;;3.50;2.83;;;;;;;;;;5114515;28;20269;-51
2021/03/27 01:10:33;;;;;;;3.25;2.95;;;;;;;;;;5096419;28;20257;-51
2021/03/27 01:13:05;;;;;;;3.33;2.90;;;;;;;;;;5114491;28;20771;-51
2021/03/27 01:15:36;;;;;;;3.13;2.83;;;;;;;;;;5113913;28;20177;-51
2021/03/27 01:18:03;;;;;;;2.78;2.58;;;;;;;;;;5114553;28;20563;-51
2021/03/27 01:20:41;;;;;;;2.75;2.55;;;;;;;;;;5114026;28;20185;-51
2021/03/27 01:23:08;;;;;;;4.85;3.00;;;;;;;;;;5113987;28;20208;-51
2021/03/27 01:25:35;;;;;;;3.10;2.80;;;;;;;;;;5106642;28;20181;-51
2021/03/27 01:28:21;;;;;;;3.13;2.83;;;;;;;;;;5108288;28;20461;-51
2021/03/27 01:30:59;;;;;;;3.78;2.90;;;;;;;;;;5118933;28;20188;-51
2021/03/27 01:33:33;;;;;;;2.97;2.63;;;;;;;;;;5120950;28;20249;-51
2021/03/27 01:36:05;;;;;;;2.92;2.63;;;;;;;;;;5118680;28;20181;-51
2021/03/27 01:38:36;;;;;;;3.40;2.75;;;;;;;;;;5120942;28;20564;-51
2021/03/27 01:41:10;;;;;;;3.05;2.72;;;;;;;;;;5121294;28;20568;-51
2021/03/27 01:43:51;;;;;;;2.83;2.53;;;;;;;;;;5120428;28;20558;-51
2021/03/27 01:46:24;;;;;;;2.88;2.60;;;;;;;;;;5119069;28;20222;-51
2021/03/27 01:49:02;;;;;;;2.78;2.58;;;;;;;;;;5121124;28;20214;-51
2021/03/27 01:51:49;;;;;;;3.17;2.85;;;;;;;;;;5120820;28;20196;-51
2021/03/27 01:54:20;;;;;;;2.90;2.58;;;;;;;;;;5120439;28;20241;-51
2021/03/27 01:57:04;;;;;;;3.00;2.70;;;;;;;;;;5120542;28;20181;-51
2021/03/27 01:59:33;;;;;;;3.00;2.70;;;;;;;;;;5120637;28;20181;-52
2021/03/27 02:02:05;;;;;;;2.83;2.55;;;;;;;;;;5120615;28;20229;-52
2021/03/27 02:04:41;;;;;;;3.22;2.47;;;;;;;;;;5120270;28;20208;-52
2021/03/27 02:07:10;;;;;;;2.78;2.22;;;;;;;;;;5120491;28;20181;-52
2021/03/27 02:09:54;;;;;;;2.58;2.30;;;;;;;;;;5117061;28;20228;-52
2021/03/27 02:12:28;;;;;;;2.75;2.47;;;;;;;;;;5120653;28;20192;-52
2021/03/27 02:14:57;;;;;;;3.13;2.75;;;;;;;;;;5120407;28;20748;-52
2021/03/27 02:17:42;;;;;;;3.03;2.72;;;;;;;;;;5118530;28;20493;-51
2021/03/27 02:20:08;;;;;;;3.30;3.00;;;;;;;;;;5120458;28;20188;-51
2021/03/27 02:22:41;;;;;;;3.40;2.53;;;;;;;;;;5119993;28;20192;-51
2021/03/27 02:25:10;;;;;;;2.80;2.47;;;;;;;;;;5120117;28;20181;-51
2021/03/27 02:28:05;;;;;;;3.13;2.55;;;;;;;;;;5101536;28;20500;-52
2021/03/27 02:30:37;;;;;;;2.47;2.28;;;;;;;;;;5120007;28;20184;-52
2021/03/27 02:33:12;;;;;;;2.67;2.47;;;;;;;;;;5120877;28;20204;-52
2021/03/27 02:35:42;;;;;;;3.00;2.70;;;;;;;;;;5104713;28;20213;-51
2021/03/27 02:38:26;;;;;;;2.47;2.28;;;;;;;;;;5110583;28;20180;-51
2021/03/27 02:41:14;;;;;;;2.83;2.50;;;;;;;;;;5119314;28;20264;-51
2021/03/27 02:43:46;;;;;;;3.03;2.50;;;;;;;;;;5116741;28;20576;-52
2021/03/27 02:46:31;;;;;;;2.80;2.60;;;;;;;;;;5116832;28;20184;-51
2021/03/27 02:49:12;;;;;;;2.58;2.38;;;;;;;;;;5116930;28;20633;-51
2021/03/27 02:52:07;;;;;;;2.53;2.33;;;;;;;;;;5116919;28;20297;-51
2021/03/27 02:54:46;;;;;;;2.75;2.10;;;;;;;;;;5098386;28;20228;-51
2021/03/27 02:57:21;;;;;;;3.08;2.78;;;;;;;;;;5116950;28;20173;-52
2021/03/27 02:59:59;;;;;;;2.30;2.10;;;;;;;;;;5116810;28;20176;-51
2021/03/27 03:02:34;;;;;;;2.67;2.47;;;;;;;;;;5116528;28;20587;-51
2021/03/27 03:05:22;;;;;;;3.50;2.30;;;;;;;;;;5116545;28;20281;-51
2021/03/27 03:07:48;;;;;;;2.83;2.58;;;;;;;;;;5116502;28;20254;-51
2021/03/27 03:10:23;;;;;;;2.47;2.28;;;;;;;;;;5116737;28;20560;-51
2021/03/27 03:13:00;;;;;;;3.17;2.53;;;;;;;;;;5116740;28;20191;-51
2021/03/27 03:16:01;;;;;;;2.38;2.17;;;;;;;;;;5116008;28;20207;-51
2021/03/27 03:18:46;;;;;;;2.70;2.30;;;;;;;;;;5033588;28;20265;-51
2021/03/27 03:21:17;;;;;;;2.30;2.10;;;;;;;;;;5109731;28;20215;-51
2021/03/27 03:23:43;;;;;;;2.50;2.30;;;;;;;;;;5115857;28;20322;-51
2021/03/27 03:26:28;;;;;;;2.85;2.33;;;;;;;;;;5115556;28;20503;-52
2021/03/27 03:28:54;;;;;;;2.88;2.15;;;;;;;;;;5116001;28;20602;-51
2021/03/27 03:31:26;;;;;;;5.07;2.25;;;;;;;;;;5116183;28;20169;-51
2021/03/27 03:34:06;;;;;;;2.97;2.60;;;;;;;;;;5116113;28;20180;-51
2021/03/27 03:36:47;;;;;;;2.20;2.00;;;;;;;;;;5115740;28;20177;-51
2021/03/27 03:39:30;;;;;;;2.70;2.30;;;;;;;;;;5115893;28;20560;-51
2021/03/27 03:41:59;;;;;;;2.63;2.25;;;;;;;;;;5116328;28;20185;-51
2021/03/27 03:44:41;;;;;;;2.55;2.30;;;;;;;;;;5115127;28;20258;-51
2021/03/27 03:47:25;;;;;;;2.72;2.20;;;;;;;;;;5115715;28;20204;-51
2021/03/27 03:50:04;;;;;;;2.33;1.98;;;;;;;;;;5095852;28;20220;-51
2021/03/27 03:52:42;;;;;;;2.42;2.10;;;;;;;;;;5094707;28;20456;-51
2021/03/27 03:55:37;;;;;;;2.45;2.25;;;;;;;;;;5094537;28;20181;-51
2021/03/27 03:58:10;;;;;;;2.33;2.13;;;;;;;;;;5034118;28;20327;-51
2021/03/27 04:00:40;;;;;;;2.40;2.20;;;;;;;;;;5115424;28;20189;-51
2021/03/27 04:03:24;;;;;;;2.22;2.03;;;;;;;;;;5115731;28;20250;-51
2021/03/27 04:06:00;;;;;;;2.53;2.30;;;;;;;;;;5114794;28;20185;-51
2021/03/27 04:08:45;;;;;;;2.70;2.00;;;;;;;;;;5115083;28;20278;-51
2021/03/27 04:11:30;;;;;;;2.33;2.13;;;;;;;;;;5115068;28;20199;-51
2021/03/27 04:13:57;;;;;;;2.42;2.22;;;;;;;;;;5115163;28;20230;-52
2021/03/27 04:16:24;;;;;;;2.28;2.08;;;;;;;;;;5114822;28;20192;-52
2021/03/27 04:19:02;;;;;;;2.10;1.90;;;;;;;;;;5115461;28;20282;-51
2021/03/27 04:21:31;;;;;;;2.75;2.40;;;;;;;;;;5115215;28;20212;-51
2021/03/27 04:24:03;;;;;;;2.00;1.85;;;;;;;;;;5115322;28;20204;-51
2021/03/27 04:26:38;;;;;;;2.05;1.92;;;;;;;;;;5096705;28;20185;-51
2021/03/27 04:29:20;;;;;;;2.08;1.90;;;;;;;;;;5114967;28;20212;-52
2021/03/27 04:32:04;;;;;;;2.65;2.35;;;;;;;;;;5102749;28;20181;-51
2021/03/27 04:34:33;;;;;;;2.33;2.13;;;;;;;;;;5109106;28;20584;-51
2021/03/27 04:37:07;;;;;;;2.20;1.98;;;;;;;;;;5105566;28;20182;-51
2021/03/27 04:39:33;;;;;;;2.25;2.05;;;;;;;;;;5114998;28;20563;-51
2021/03/27 04:42:04;;;;;;;2.40;2.20;;;;;;;;;;5115068;28;20184;-51
2021/03/27 04:44:42;;;;;;;2.30;1.88;;;;;;;;;;5114188;28;20177;-51
2021/03/27 04:47:11;;;;;;;2.55;2.03;;;;;;;;;;5115017;28;20177;-51
2021/03/27 04:49:43;;;;;;;1.90;1.80;;;;;;;;;;5114414;28;20201;-51
2021/03/27 04:52:19;;;;;;;2.20;2.00;;;;;;;;;;5115270;28;20185;-51
2021/03/27 04:54:54;;;;;;;4.13;2.30;;;;;;;;;;5114402;28;20503;-51
2021/03/27 04:57:20;;;;;;;3.75;2.40;;;;;;;;;;5114107;28;20445;-51
2021/03/27 05:00:05;;;;;;;3.33;2.25;;;;;;;;;;5114745;28;20173;-50
2021/03/27 05:02:40;;;;;;;2.20;2.00;;;;;;;;;;5114360;28;20189;-50
2021/03/27 05:05:15;;;;;;;3.20;1.90;;;;;;;;;;5113633;28;20176;-51
2021/03/27 05:07:58;;;;;;;3.35;2.58;;;;;;;;;;5114260;28;20877;-51
2021/03/27 05:10:30;;;;;;;3.00;1.75;;;;;;;;;;5114253;28;20172;-51
2021/03/27 05:13:11;;;;;;;2.55;1.88;;;;;;;;;;5114783;28;20165;-51
2021/03/27 05:15:49;;;;;;;3.55;2.20;;;;;;;;;;5113669;28;20204;-51
2021/03/27 05:18:28;;;;;;;2.22;2.03;;;;;;;;;;5114672;28;20175;-51
2021/03/27 05:21:02;;;;;;;3.80;2.20;;;;;;;;;;5114334;28;20180;-52
2021/03/27 05:23:29;;;;;;;2.30;2.08;;;;;;;;;;5114156;28;20273;-51
2021/03/27 05:25:59;;;;;;;2.42;2.10;;;;;;;;;;5113924;28;20195;-51
2021/03/27 05:28:26;;;;;;;2.63;2.00;;;;;;;;;;5113770;28;20197;-51
2021/03/27 05:31:15;;;;;;;2.65;2.45;;;;;;;;;;5114513;28;20169;-51
2021/03/27 05:33:46;;;;;;;2.25;1.90;;;;;;;;;;5102853;28;20181;-51
2021/03/27 05:36:18;;;;;;;1.95;1.75;;;;;;;;;;5094239;28;20186;-51
2021/03/27 05:38:52;;;;;;;2.42;2.00;;;;;;;;;;5094098;28;20269;-50
2021/03/27 05:41:21;;;;;;;2.58;2.05;;;;;;;;;;5093671;28;20213;-51
2021/03/27 05:43:56;;;;;;;1.90;1.80;;;;;;;;;;5097598;28;20192;-51
2021/03/27 05:46:42;;;;;;;2.05;1.95;;;;;;;;;;5113613;28;20470;-51
2021/03/27 05:49:38;;;;;;;3.00;2.10;;;;;;;;;;5109853;28;20208;-51
2021/03/27 05:52:09;;;;;;;1.65;1.55;;;;;;;;;;5114196;28;20177;-51
2021/03/27 05:54:54;;;;;;;2.33;1.85;;;;;;;;;;5112959;28;20188;-52
2021/03/27 05:57:27;;;;;;;2.00;1.90;;;;;;;;;;5113114;28;20196;-51
2021/03/27 05:59:53;;;;;;;3.60;2.03;;;;;;;;;;5113827;28;20195;-51
2021/03/27 06:02:34;;;;;;;1.85;1.75;;;;;;;;;;5113445;28;20197;-51
2021/03/27 06:05:18;;;;;;;3.08;2.33;;;;;;;;;;5113331;28;20177;-51
2021/03/27 06:07:54;;;;;;;2.28;2.00;;;;;;;;;;5113893;28;20351;-51
2021/03/27 06:10:28;;;;;;;2.22;1.95;;;;;;;;;;5113643;28;20165;-51
2021/03/27 06:13:02;;;;;;;1.88;1.67;;;;;;;;;;5113740;28;20180;-51
2021/03/27 06:15:47;;;;;;;2.10;1.90;;;;;;;;;;5113030;28;20176;-50
2021/03/27 06:18:25;;;;;;;1.85;1.75;;;;;;;;;;5117452;28;20169;-50
2021/03/27 06:21:06;;;;;;;3.47;2.00;;;;;;;;;;5117752;28;20181;-50
2021/03/27 06:23:46;;;;;;;2.00;1.88;;;;;;;;;;5116961;28;20189;-50
2021/03/27 06:26:31;;;;;;;2.28;2.05;;;;;;;;;;5116949;28;20256;-50
2021/03/27 06:29:15;;;;;;;2.20;2.00;;;;;;;;;;5117814;28;20208;-50
2021/03/27 06:31:47;;;;;;;2.40;2.20;;;;;;;;;;5117097;28;20177;-50
2021/03/27 06:34:19;;;;;;;1.95;1.85;;;;;;;;;;5117213;28;20565;-50
2021/03/27 06:36:48;;;;;;;2.08;1.88;;;;;;;;;;5116877;28;20173;-50
2021/03/27 06:39:20;;;;;;;2.10;1.90;;;;;;;;;;5116779;28;20181;-50
2021/03/27 06:41:46;;;;;;;1.80;1.70;;;;;;;;;;5117508;28;20184;-50
2021/03/27 06:44:34;;;;;;;1.88;1.77;;;;;;;;;;5116914;28;20181;-50
2021/03/27 06:47:09;;;;;;;1.75;1.60;;;;;;;;;;5117544;28;20226;-50
2021/03/27 06:50:03;;;;;;;1.92;1.60;;;;;;;;;;5115992;28;20188;-50
2021/03/27 06:52:32;;;;;;;2.00;1.80;;;;;;;;;;5116396;28;20572;-50
2021/03/27 06:55:04;;;;;;;1.92;1.80;;;;;;;;;;5116890;28;20177;-50
2021/03/27 06:57:42;;;;;;;3.28;1.80;;;;;;;;;;5116698;28;20173;-51
2021/03/27 07:00:44;;;;;;;1.75;1.52;;;;;;;;;;5116821;28;20201;-51
2021/03/27 07:03:28;;;;;;;2.45;1.48;;;;;;;;;;5034863;28;20482;-51
2021/03/27 07:05:59;;;;;;;2.75;1.77;;;;;;;;;;5109714;28;20181;-51
2021/03/27 07:08:25;;;;;;;3.03;1.88;;;;;;;;;;5116221;28;20253;-51
2021/03/27 07:11:10;;;;;;;2.22;1.70;;;;;;;;;;5116806;28;20181;-50
2021/03/27 07:13:36;;;;;;;2.13;1.70;;;;;;;;;;5116649;28;20188;-50
2021/03/27 07:16:14;;;;;;;3.78;2.10;;;;;;;;;;5116214;28;20169;-50
2021/03/27 07:18:46;;;;;;;1.75;1.50;;;;;;;;;;5115791;28;20185;-50
2021/03/27 07:21:35;;;;;;;2.88;1.90;;;;;;;;;;5116604;28;20185;-51
2021/03/27 07:24:01;;;;;;;1.90;1.55;;;;;;;;;;5116235;28;20193;-51
2021/03/27 07:26:45;;;;;;;6.00;2.10;;;;;;;;;;5115190;28;20188;-51
2021/03/27 07:29:30;;;;;;;2.92;1.50;;;;;;;;;;5116159;28;20200;-51
2021/03/27 07:32:02;;;;;;;2.70;1.67;;;;;;;;;;5116237;28;20587;-51
2021/03/27 07:34:28;;;;;;;2.20;1.70;;;;;;;;;;5115257;28;20192;-51
2021/03/27 07:37:06;;;;;;;1.48;1.30;;;;;;;;;;5111267;28;20181;-51
2021/03/27 07:39:35;;;;;;;2.00;1.45;;;;;;;;;;5096905;28;20185;-51
2021/03/27 07:42:20;;;;;;;1.45;1.30;;;;;;;;;;5095754;28;20545;-52
2021/03/27 07:44:51;;;;;;;2.63;1.65;;;;;;;;;;5095320;28;20591;-52
2021/03/27 07:47:29;;;;;;;1.98;1.70;;;;;;;;;;5115033;28;20178;-51
2021/03/27 07:50:14;;;;;;;1.83;1.63;;;;;;;;;;5116000;28;20192;-51
2021/03/27 07:52:46;;;;;;;2.05;1.70;;;;;;;;;;5105726;28;20189;-51
2021/03/27 07:55:36;;;;;;;2.17;1.95;;;;;;;;;;5095231;28;20227;-51
2021/03/27 07:58:09;;;;;;;1.90;1.70;;;;;;;;;;5095662;28;20253;-50
2021/03/27 08:01:07;;;;;;;3.13;1.88;;;;;;;;;;5111386;28;20191;-52
2021/03/27 08:03:42;;;;;;;1.52;1.20;;;;;;;;;;5070799;28;20196;-50
2021/03/27 08:08:40;;;;;;;1.92;1.33;;;;;;;;;;5132122;27;20463;-51
2021/03/27 08:11:09;;;;;;;1.92;1.40;;;;;;;;;;5121918;28;20544;-48
2021/03/27 08:13:54;;;;;;;3.55;1.30;;;;;;;;;;5111445;28;20252;-48
2021/03/27 08:16:32;;;;;;;1.88;1.38;;;;;;;;;;5124798;28;20579;-51
2021/03/27 08:19:01;;;;;;;4.88;1.40;;;;;;;;;;5132600;28;20218;-51
2021/03/27 08:21:36;;;;;;;1.55;1.45;;;;;;;;;;5120075;27;20188;-51
2021/03/27 08:24:12;;;;;;;2.95;1.40;;;;;;;;;;5126838;28;20172;-49
2021/03/27 08:27:10;;;;;;;1.88;1.50;;;;;;;;;;5131802;28;20192;-53
2021/03/27 08:29:42;;;;;;;3.13;1.55;;;;;;;;;;5086527;27;20184;-51
2021/03/27 08:32:47;;;;;;;5.47;1.50;;;;;;;;;;5132001;28;20591;-49
2021/03/27 08:35:31;;;;;;;4.82;1.50;;;;;;;;;;5048014;28;20197;-55
2021/03/27 08:38:00;;;;;;;1.60;1.50;;;;;;;;;;5035323;28;20585;-56
2021/03/27 08:40:44;;;;;;;2.55;1.30;;;;;;;;;;5079465;28;20292;-55
2021/03/27 08:43:29;;;;;;;2.88;1.40;;;;;;;;;;5111570;28;20193;-55
2021/03/27 08:46:04;;;;;;;1.50;1.30;;;;;;;;;;5122214;28;20195;-55
2021/03/27 08:48:51;;;;;;;1.90;1.48;;;;;;;;;;5114286;28;20255;-55
2021/03/27 08:51:20;;;;;;;1.80;1.20;;;;;;;;;;5122732;28;20183;-55
2021/03/27 08:54:05;;;;;;;2.50;1.15;;;;;;;;;;5125401;28;20263;-55
2021/03/27 08:56:31;;;;;;;1.80;1.25;;;;;;;;;;5119716;28;20177;-54
2021/03/27 08:59:15;;;;;;;3.17;1.15;;;;;;;;;;5126589;28;20230;-54
2021/03/27 09:01:47;;;;;;;2.45;1.10;;;;;;;;;;5115099;28;20181;-54
2021/03/27 09:04:33;;;;;;;5.20;1.63;;;;;;;;;;5127872;28;20180;-54
2021/03/27 09:07:17;;;;;;;4.38;1.60;;;;;;;;;;5127312;27;20216;-54
2021/03/27 09:09:46;;;;;;;4.97;1.38;;;;;;;;;;5145425;27;20222;-54
2021/03/27 09:12:31;;;;;;;3.45;1.45;;;;;;;;;;5147738;27;20183;-54
2021/03/27 09:15:15;;;;;;;2.63;1.48;;;;;;;;;;5133142;27;20181;-54
2021/03/27 09:18:00;;;;;;;1.92;1.30;;;;;;;;;;5138253;27;20567;-54
2021/03/27 09:20:41;;;;;;;1.58;1.23;;;;;;;;;;5125116;27;20194;-54
2021/03/27 09:23:26;;;;;;;2.88;1.48;;;;;;;;;;5112415;28;20181;-54
2021/03/27 09:25:51;;;;;;;5.72;1.27;;;;;;;;;;5126854;27;20184;-54
2021/03/27 09:28:41;;;;;;;3.60;1.50;;;;;;;;;;5119701;27;20259;-54
2021/03/27 09:31:26;;;;;;;3.28;0.90;;;;;;;;;;5131217;27;20181;-54
2021/03/27 09:34:05;;;;;;;0.93;0.90;;;;;;;;;;5131727;27;20184;-54
2021/03/27 09:36:50;;;;;;;3.17;1.38;;;;;;;;;;5120110;27;20173;-54
2021/03/27 09:39:33;;;;;;;1.25;1.15;;;;;;;;;;5137693;27;20184;-54
2021/03/27 09:42:14;;;;;;;1.42;1.05;;;;;;;;;;5135653;27;20188;-54
2021/03/27 09:44:52;;;;;;;3.50;1.08;;;;;;;;;;5130302;27;20179;-54
2021/03/27 09:47:19;;;;;;;1.65;1.17;;;;;;;;;;5115656;28;20239;-55
2021/03/27 09:49:48;;;;;;;1.40;1.00;;;;;;;;;;5119914;27;20189;-55
2021/03/27 09:52:29;;;;;;;1.95;0.93;;;;;;;;;;5128406;27;20564;-55
2021/03/27 09:55:17;;;;;;;6.35;1.08;;;;;;;;;;5126569;27;20271;-55
2021/03/27 09:57:51;;;;;;;2.25;1.20;;;;;;;;;;5124029;27;20188;-55
2021/03/27 10:00:35;;;;;;;1.48;1.35;;;;;;;;;;5115521;28;20255;-55
2021/03/27 10:03:01;;;;;;;2.45;1.05;;;;;;;;;;5116715;28;20638;-55
2021/03/27 10:05:34;;;;;;;2.38;1.15;;;;;;;;;;5114866;28;20188;-54
2021/03/27 10:08:03;;;;;;;1.45;1.08;;;;;;;;;;5098156;28;20274;-54
2021/03/27 10:10:42;;;;;;;2.78;1.25;;;;;;;;;;5136059;27;20475;-54
2021/03/27 10:13:39;;;;;;;2.03;1.23;;;;;;;;;;5113671;28;20564;-54
2021/03/27 10:16:17;;;;;;;1.70;0.93;;;;;;;;;;5115877;28;20170;-54
2021/03/27 10:18:46;;;;;;;1.80;0.77;;;;;;;;;;5115802;28;20276;-54
2021/03/27 10:21:24;;;;;;;0.50;0.50;;;;;;;;;;5122674;27;20192;-54
2021/03/27 10:24:05;;;;;;;1.20;0.70;;;;;;;;;;5136739;27;20217;-54
2021/03/27 10:26:52;;;;;;;0.40;0.40;;;;;;;;;;5136188;27;20578;-55
2021/03/27 10:32:32;;;;;;;1.83;0.68;;;;;;;;;;5110938;27;20179;-55
2021/03/27 10:34:58;;;;;;;0.85;0.50;;;;;;;;;;5128396;27;20199;-55
2021/03/27 10:37:24;;;;;;;1.02;0.60;;;;;;;;;;5130953;27;20547;-55
2021/03/27 10:39:50;;;;;;;0.55;0.50;;;;;;;;;;5130006;27;20579;-55
2021/03/27 10:42:27;;;;;;;0.30;0.30;;;;;;;;;;5128156;27;20207;-55
2021/03/27 10:45:12;;;;;;;1.38;0.70;;;;;;;;;;5116810;27;20275;-54
2021/03/27 10:47:46;;;;;;;0.68;0.52;;;;;;;;;;5124392;27;20489;-54
2021/03/27 10:50:27;;;;;;;0.68;0.43;;;;;;;;;;5132999;27;20180;-54
2021/03/27 10:53:02;;;;;;;4.65;1.05;;;;;;;;;;5124172;27;20230;-55
2021/03/27 10:55:47;;;;;;;5.22;1.00;;;;;;;;;;5126034;27;20422;-55
2021/03/27 10:58:13;;;;;;;4.25;0.77;;;;;;;;;;5132886;27;20224;-55
2021/03/27 11:01:02;;;;;;;2.22;0.93;;;;;;;;;;5121644;27;20221;-55
2021/03/27 11:03:47;;;;;;;1.55;0.90;;;;;;;;;;5124032;27;20487;-55
2021/03/27 11:06:19;;;;;;;1.67;0.60;;;;;;;;;;5115612;27;20189;-55
2021/03/27 11:08:54;;;;;;;0.60;0.60;;;;;;;;;;5120630;27;20248;-56
2021/03/27 11:11:37;;;;;;;1.55;0.57;;;;;;;;;;5135159;27;20179;-55
2021/03/27 11:14:31;;;;;;;1.10;0.60;;;;;;;;;;5114528;28;20186;-55
2021/03/27 11:17:16;;;;;;;1.10;0.65;;;;;;;;;;5119927;27;20263;-55
2021/03/27 11:19:42;;;;;;;1.17;0.50;;;;;;;;;;5121984;27;20199;-55
2021/03/27 11:22:26;;;;;;;0.63;0.50;;;;;;;;;;5134828;27;20197;-55
2021/03/27 11:25:11;;;;;;;0.95;0.70;;;;;;;;;;5135211;27;20263;-54
2021/03/27 11:27:52;;;;;;;2.45;0.75;;;;;;;;;;5117975;27;20211;-55
2021/03/27 11:30:33;;;;;;;0.73;0.70;;;;;;;;;;5124512;27;20623;-55
2021/03/27 11:33:06;;;;;;;2.45;0.82;;;;;;;;;;5125320;27;20181;-55
2021/03/27 11:35:36;;;;;;;2.83;0.60;;;;;;;;;;5128139;27;20176;-55
2021/03/27 11:38:02;;;;;;;0.95;0.73;;;;;;;;;;5135165;27;20176;-55
2021/03/27 11:40:47;;;;;;;2.17;0.80;;;;;;;;;;5126447;27;20276;-54
2021/03/27 11:43:24;;;;;;;1.42;0.60;;;;;;;;;;5118640;27;20184;-54
2021/03/27 11:45:55;;;;;;;0.50;0.50;;;;;;;;;;5115337;27;20188;-55
2021/03/27 11:48:25;;;;;;;1.27;0.38;;;;;;;;;;5115233;27;20207;-55
2021/03/27 11:51:10;;;;;;;1.45;0.75;;;;;;;;;;5114649;28;20166;-55
2021/03/27 11:53:39;;;;;;;1.35;0.70;;;;;;;;;;5132531;27;20212;-55
2021/03/27 11:56:08;;;;;;;0.68;0.68;;;;;;;;;;5120711;27;20177;-54
2021/03/27 11:59:42;;;;;;;3.75;0.98;;;;;;;;;;5117104;28;20192;-54
2021/03/27 12:01:27;;;;;;;1.27;0.77;;;;;;;;;;5122723;27;20664;-54
2021/03/27 12:03:59;;;;;;;1.50;0.60;;;;;;;;;;5120743;28;20176;-54
2021/03/27 12:06:25;;;;;;;1.33;0.60;;;;;;;;;;5116402;28;20246;-54
2021/03/27 12:09:12;;;;;;;0.75;0.65;;;;;;;;;;5127625;28;20181;-54
2021/03/27 12:11:51;;;;;;;1.02;0.70;;;;;;;;;;5122685;28;20211;-54
2021/03/27 12:14:18;;;;;;;3.30;0.70;;;;;;;;;;5116920;27;20301;-54
2021/03/27 12:17:00;;;;;;;0.80;0.63;;;;;;;;;;5126002;27;20643;-54
2021/03/27 12:19:30;;;;;;;1.85;0.70;;;;;;;;;;5120664;28;20176;-54
2021/03/27 12:22:30;;;;;;;0.88;0.65;;;;;;;;;;5129072;28;20610;-54
2021/03/27 12:25:19;;;;;;;3.30;0.70;;;;;;;;;;5086276;28;20219;-55
2021/03/27 12:27:45;;;;;;;3.35;0.57;;;;;;;;;;5121382;28;20208;-54
2021/03/27 12:30:14;;;;;;;1.13;0.60;;;;;;;;;;5118019;28;20192;-54
2021/03/27 12:32:53;;;;;;;0.80;0.70;;;;;;;;;;5121866;28;20181;-54
2021/03/27 12:35:22;;;;;;;2.97;0.80;;;;;;;;;;5124343;28;20237;-54
2021/03/27 12:37:48;;;;;;;3.47;0.90;;;;;;;;;;5124917;28;20181;-54
2021/03/27 12:40:28;;;;;;;2.25;0.77;;;;;;;;;;5120987;28;20600;-54
2021/03/27 12:43:06;;;;;;;1.02;0.93;;;;;;;;;;5134550;28;20267;-54
2021/03/27 12:45:35;;;;;;;3.22;0.88;;;;;;;;;;5128986;28;20263;-54
2021/03/27 12:48:06;;;;;;;3.80;0.82;;;;;;;;;;5116591;28;20211;-54
2021/03/27 12:50:50;;;;;;;2.92;1.10;;;;;;;;;;5125218;28;20180;-54
2021/03/27 12:53:35;;;;;;;1.98;0.93;;;;;;;;;;5134697;27;20172;-54
2021/03/27 12:56:07;;;;;;;2.83;1.00;;;;;;;;;;5137713;27;20811;-54
2021/03/27 12:58:44;;;;;;;3.65;0.80;;;;;;;;;;5138138;27;20183;-54
2021/03/27 13:01:22;;;;;;;1.45;0.88;;;;;;;;;;5137936;27;20179;-54
2021/03/27 13:03:51;;;;;;;2.75;1.00;;;;;;;;;;5136278;27;20219;-54
2021/03/27 13:06:35;;;;;;;2.15;0.90;;;;;;;;;;5137480;27;20189;-54
2021/03/27 13:09:14;;;;;;;3.97;0.90;;;;;;;;;;5137834;27;20475;-54
2021/03/27 13:11:46;;;;;;;3.17;1.00;;;;;;;;;;5137613;27;20792;-54
2021/03/27 13:14:32;;;;;;;1.33;0.88;;;;;;;;;;5124785;27;20188;-54
2021/03/27 13:17:06;;;;;;;2.00;0.80;;;;;;;;;;5134940;27;20180;-54
2021/03/27 13:19:38;;;;;;;3.10;0.90;;;;;;;;;;5121180;27;20192;-54
2021/03/27 13:22:16;;;;;;;1.73;0.70;;;;;;;;;;5117234;27;20221;-54
2021/03/27 13:24:57;;;;;;;1.70;1.00;;;;;;;;;;5134733;27;20184;-55
2021/03/27 13:27:26;;;;;;;1.02;0.60;;;;;;;;;;5137307;27;20208;-56
2021/03/27 13:29:55;;;;;;;2.38;0.70;;;;;;;;;;5137704;27;20168;-56
2021/03/27 13:32:23;;;;;;;3.83;0.90;;;;;;;;;;5137219;27;20583;-56
2021/03/27 13:35:05;;;;;;;1.02;0.63;;;;;;;;;;5129671;27;20191;-55
2021/03/27 13:37:31;;;;;;;1.88;0.70;;;;;;;;;;5131614;27;20267;-55
2021/03/27 13:40:03;;;;;;;1.42;0.52;;;;;;;;;;5136884;27;20319;-55
2021/03/27 13:42:44;;;;;;;1.30;0.73;;;;;;;;;;5137121;27;20187;-55
2021/03/27 13:45:16;;;;;;;2.42;0.90;;;;;;;;;;5137045;27;20204;-55
2021/03/27 13:48:05;;;;;;;1.48;0.75;;;;;;;;;;5124260;27;20281;-55
2021/03/27 13:50:37;;;;;;;0.98;0.68;;;;;;;;;;5121762;27;20196;-55
2021/03/27 13:53:19;;;;;;;1.15;0.70;;;;;;;;;;5116634;28;20548;-55
2021/03/27 13:56:03;;;;;;;0.60;0.47;;;;;;;;;;5120738;27;20223;-55
2021/03/27 13:58:40;;;;;;;0.82;0.60;;;;;;;;;;5136989;27;20241;-55
2021/03/27 14:01:12;;;;;;;1.52;0.60;;;;;;;;;;5136436;27;20563;-55
2021/03/27 14:03:57;;;;;;;1.52;0.52;;;;;;;;;;5118316;27;20184;-56
2021/03/27 14:06:27;;;;;;;0.70;0.60;;;;;;;;;;5113968;27;20204;-55
2021/03/27 14:09:03;;;;;;;1.48;0.60;;;;;;;;;;5116880;27;20596;-55
2021/03/27 14:11:32;;;;;;;0.93;0.70;;;;;;;;;;5118925;27;20183;-56
2021/03/27 14:14:03;;;;;;;0.80;0.50;;;;;;;;;;5135957;27;20563;-55
2021/03/27 14:16:48;;;;;;;0.50;0.50;;;;;;;;;;5136271;27;20279;-55
2021/03/27 14:19:14;;;;;;;0.45;0.43;;;;;;;;;;5137060;27;20543;-55
2021/03/27 14:21:46;;;;;;;0.68;0.50;;;;;;;;;;5135819;27;20197;-55
2021/03/27 14:24:31;;;;;;;0.93;0.70;;;;;;;;;;5126128;27;20560;-55
2021/03/27 14:27:20;;;;;;;1.17;0.65;;;;;;;;;;5116144;28;20201;-55
2021/03/27 14:29:49;;;;;;;1.52;0.70;;;;;;;;;;5105609;28;20461;-55
2021/03/27 14:32:15;;;;;;;1.13;0.80;;;;;;;;;;5116158;28;20453;-55
2021/03/27 14:35:02;;;;;;;1.30;0.60;;;;;;;;;;5121852;27;20169;-55
2021/03/27 14:37:34;;;;;;;0.77;0.60;;;;;;;;;;5115652;28;20552;-55
2021/03/27 14:40:03;;;;;;;4.18;0.88;;;;;;;;;;5117065;27;20256;-55
2021/03/27 14:42:51;;;;;;;0.95;0.40;;;;;;;;;;5115489;27;20200;-55
2021/03/27 14:45:35;;;;;;;0.60;0.60;;;;;;;;;;5114905;28;20670;-55
2021/03/27 14:48:07;;;;;;;1.30;0.55;;;;;;;;;;5115782;27;20197;-55
2021/03/27 14:50:52;;;;;;;1.27;0.50;;;;;;;;;;5115318;28;20170;-55
2021/03/27 14:53:18;;;;;;;2.28;0.57;;;;;;;;;;5121753;27;20451;-54
2021/03/27 14:55:44;;;;;;;0.55;0.50;;;;;;;;;;5115800;27;20539;-55
2021/03/27 14:58:13;;;;;;;0.60;0.50;;;;;;;;;;5115329;28;20188;-55
2021/03/27 15:00:54;;;;;;;1.17;0.55;;;;;;;;;;5126991;27;20190;-55
2021/03/27 15:03:29;;;;;;;0.82;0.75;;;;;;;;;;5115408;27;20437;-55
2021/03/27 15:06:16;;;;;;;1.15;0.80;;;;;;;;;;5119614;27;20208;-55
2021/03/27 15:08:45;;;;;;;0.40;0.40;;;;;;;;;;5133459;27;20181;-55
2021/03/27 15:11:23;;;;;;;1.33;0.60;;;;;;;;;;5134123;27;20180;-55
2021/03/27 15:13:55;;;;;;;1.27;0.60;;;;;;;;;;5133651;27;20567;-55
2021/03/27 15:16:28;;;;;;;0.75;0.40;;;;;;;;;;5130574;27;20218;-55
2021/03/27 15:19:12;;;;;;;1.58;0.50;;;;;;;;;;5116111;27;20173;-54
2021/03/27 15:21:57;;;;;;;0.88;0.57;;;;;;;;;;5124540;27;20175;-54
2021/03/27 15:24:33;;;;;;;8.63;2.22;;;;;;;;;;5110335;27;20548;-54
2021/03/27 15:27:18;;;;;;;27.38;5.55;;;;;;;;;;5127865;27;20212;-54
2021/03/27 15:29:50;;;;;;;47.00;10.80;;;;;;;;;;5116167;27;20180;-54
2021/03/27 15:32:19;;;;;;;60.97;13.35;;;;;;;;;;5125788;27;20180;-54
2021/03/27 15:35:06;;;;;;;66.68;15.18;;;;;;;;;;5126360;27;20184;-54
2021/03/27 15:37:32;;;;;;;75.18;17.20;;;;;;;;;;5114437;28;20256;-54
2021/03/27 15:40:07;;;;;;;77.28;17.67;;;;;;;;;;5114382;28;20269;-54
2021/03/27 15:42:46;;;;;;;73.45;17.35;;;;;;;;;;5115459;27;20296;-54
2021/03/27 15:45:31;;;;;;;61.33;15.10;;;;;;;;;;5114689;27;20185;-54